Aeroporto :
LOGIN :

Iscrizione | Disclaimer

   EN    FR    IT 

 










Sommario :    VFR   VFR Marginale   IFR   IFR Intensivo   IFR Molto Intensivo
Visibilità : 
Base nubi : 
>= 8 km
>= 3000ft
5 / 8 km
1000 / 3000 ft
1500m / 5 km
500 / 1000 ft
800 / 1500m
200 / 500 ft
< 800m
< 200 ft
Simboli :   Temporali  Nebbia  Neve Forte  Precipitazioni Forti  Vento > 20 kt
SIGMETs :   Varie  Temporali  Ghiacco  Turbolenza  Onda orograficha  Ceneri Vulcaniche






- Altitudine del aeroporto : 1234 ft
- Codice IATA : LUX


ELLX - Luxembourg Findel

ULTIMO METAR :
  • 280650Z 23016KT 9999 -SHRA SCT010 BKN016 05/03 Q0994 TEMPO 22023G35KT 4000 SHRA BKN012CB

METARs OBSOLETI :
  • 280620Z 23015KT 9999 BKN014 05/03 Q0994 TEMPO 22023G35KT 4000 SHRA BKN012CB
  • 280550Z 22019G30KT 9999 FEW010 BKN015 05/04 Q0995 TEMPO 22023G35KT 4000 SHRA BKN012CB
  • 280520Z 22011KT 180V250 8000 -SHRA FEW010 BKN015 04/04 Q0995 TEMPO 22020G30KT 4000 SHRA BKN012CB
  • 280450Z 22019G31KT 200V260 4000 -SHRA FEW007 BKN010 05/04 Q0996 TEMPO 22023G35KT 6000
  • 280420Z 21015KT 8000 -SHRA FEW007 BKN010 05/04 Q0996 NOSIG
  • 280350Z 21014G24KT 9999 -SHRA FEW010 BKN012 06/04 Q0996 NOSIG

TAF TAF ELLX
Valido dal 28 a 06 ore il 29 a 12 ore UTC


280500Z 2806/2912 22015G25KT 9000 BKN015
TEMPO 2806/2815 23025G35KT 4000 SHRA BKN012CB
PROB30
TEMPO 2806/2814 23030G45KT 2500 TSRAGS BKN008CB
PROB40
TEMPO 2808/2815 3000 SHRASN BKN010CB
TEMPO 2818/2912 3000 -SHSNRA BKN008TCU
PROB40
TEMPO 2819/2901 1500 -SHSN BKN004TCU
ATIS : +352 4798 27300
Met : +352 4798 27010 / 27050



MetMap, La meteo Aeronautica in un colpo d'occhio ! - Copyright ORBIFLY Dicembre 2007 - Disclaimer

ORBIFLY MET'MAP TEAM :

Programmazione e sviluppo : Alexandra Zaïnal
Concezione : Baudouin d'Aumeries
Aiuto per la programmazione : Marc-Olivier Méhu
Supporto tecnico e logistico : Manuel Goepfert
Aiuto per la traduzione : Arnaldo La Scala

Contatto : metmap@orbifly.com




FONTI E CREDITI :

   NOAA